createdAt,value
2024-05-09T00:00:31.616Z,61.72
2024-05-09T00:03:05.541Z,61.07
2024-05-09T00:05:32.317Z,60.99
2024-05-09T00:07:59.173Z,60.90
2024-05-09T00:10:35.372Z,61.07
2024-05-09T00:13:04.990Z,61.23
2024-05-09T00:15:31.735Z,60.97
2024-05-09T00:17:58.481Z,61.25
2024-05-09T00:20:33.560Z,61.24
2024-05-09T00:23:05.013Z,61.26
2024-05-09T00:25:34.251Z,61.30
2024-05-09T00:28:00.959Z,61.33
2024-05-09T00:30:33.741Z,61.73
2024-05-09T00:33:02.861Z,61.86
2024-05-09T00:35:29.767Z,61.44
2024-05-09T00:37:56.563Z,62.42
2024-05-09T00:40:31.097Z,62.16
2024-05-09T00:43:07.629Z,61.85
2024-05-09T00:45:34.380Z,62.37
2024-05-09T00:48:02.528Z,62.32
2024-05-09T00:50:35.735Z,62.48
2024-05-09T00:53:04.787Z,61.89
2024-05-09T00:55:31.448Z,62.33
2024-05-09T00:57:58.082Z,62.22
2024-05-09T01:00:35.597Z,61.93
2024-05-09T01:03:06.215Z,62.72
2024-05-09T01:05:33.119Z,62.73
2024-05-09T01:07:59.851Z,62.75
2024-05-09T01:10:33.596Z,63.11
2024-05-09T01:13:02.752Z,63.46
2024-05-09T01:15:32.098Z,62.65
2024-05-09T01:18:01.144Z,63.07
2024-05-09T01:20:37.396Z,63.84
2024-05-09T01:23:12.038Z,63.61
2024-05-09T01:25:39.057Z,63.90
2024-05-09T01:28:05.879Z,63.26
2024-05-09T01:30:35.694Z,63.37
2024-05-09T01:33:04.953Z,63.63
2024-05-09T01:35:32.447Z,63.50
2024-05-09T01:37:59.066Z,63.83
2024-05-09T01:40:36.508Z,64.12
2024-05-09T01:43:05.789Z,63.86
2024-05-09T01:45:32.475Z,63.28
2024-05-09T01:47:59.299Z,63.69
2024-05-09T01:50:37.158Z,63.63
2024-05-09T01:53:07.364Z,63.39
2024-05-09T01:55:36.686Z,63.77
2024-05-09T01:58:03.350Z,64.29
2024-05-09T02:00:37.590Z,64.28
2024-05-09T02:03:08.106Z,64.58
2024-05-09T02:05:34.816Z,64.83
2024-05-09T02:08:01.843Z,64.11
2024-05-09T02:10:32.540Z,64.16
2024-05-09T02:13:02.601Z,64.63
2024-05-09T02:15:29.101Z,65.17
2024-05-09T02:17:55.851Z,65.62
2024-05-09T02:20:30.277Z,64.73
2024-05-09T02:23:02.375Z,65.13
2024-05-09T02:25:30.316Z,65.36
2024-05-09T02:27:56.846Z,65.60
2024-05-09T02:30:35.818Z,65.45
2024-05-09T02:33:06.903Z,65.43
2024-05-09T02:35:33.909Z,65.65
2024-05-09T02:38:01.069Z,65.63
2024-05-09T02:40:35.799Z,65.38
2024-05-09T02:43:04.900Z,66.32
2024-05-09T02:45:34.077Z,65.28
2024-05-09T02:48:01.729Z,66.23
2024-05-09T02:50:34.346Z,66.14
2024-05-09T02:53:05.418Z,66.44
2024-05-09T02:55:32.183Z,66.84
2024-05-09T02:57:58.753Z,66.93
2024-05-09T03:00:34.453Z,67.04
2024-05-09T03:03:09.584Z,66.60
2024-05-09T03:05:37.801Z,66.49
2024-05-09T03:08:04.966Z,67.47
2024-05-09T03:10:36.121Z,66.44
2024-05-09T03:13:05.589Z,66.61
2024-05-09T03:15:32.139Z,66.53
2024-05-09T03:17:58.818Z,66.95
2024-05-09T03:20:33.594Z,66.31
2024-05-09T03:23:02.837Z,67.36
2024-05-09T03:25:30.027Z,66.91
2024-05-09T03:27:56.833Z,67.12
2024-05-09T03:30:30.949Z,67.76
2024-05-09T03:33:09.381Z,67.56
2024-05-09T03:35:38.792Z,68.02
2024-05-09T03:38:05.469Z,68.04
2024-05-09T03:40:32.027Z,68.21
2024-05-09T03:42:58.614Z,67.90
2024-05-09T03:45:25.233Z,67.88
2024-05-09T03:47:52.125Z,68.17
2024-05-09T03:50:26.156Z,68.47
2024-05-09T03:53:05.217Z,68.23
2024-05-09T03:55:31.954Z,68.81
2024-05-09T03:57:58.668Z,68.20
2024-05-09T04:00:31.236Z,69.20
2024-05-09T04:03:05.108Z,69.53
2024-05-09T04:05:32.233Z,69.88
2024-05-09T04:07:59.066Z,67.97
2024-05-09T04:10:33.220Z,65.07
2024-05-09T04:13:01.702Z,61.82
2024-05-09T04:15:28.353Z,58.30
2024-05-09T04:17:55.146Z,56.26
2024-05-09T04:20:32.937Z,53.13
2024-05-09T04:23:05.056Z,50.85
2024-05-09T04:25:34.463Z,50.24
2024-05-09T04:28:01.021Z,49.28
2024-05-09T04:30:36.409Z,48.20
2024-05-09T04:33:07.768Z,46.94
2024-05-09T04:35:35.919Z,46.75
2024-05-09T04:38:03.227Z,47.63
2024-05-09T04:40:34.169Z,47.61
2024-05-09T04:43:06.394Z,47.04
2024-05-09T04:45:33.395Z,47.95
2024-05-09T04:48:00.397Z,48.50
2024-05-09T04:50:35.885Z,48.45
2024-05-09T04:53:05.806Z,48.84
2024-05-09T04:55:32.762Z,48.82
2024-05-09T04:57:59.279Z,48.08
2024-05-09T05:00:35.247Z,47.87
2024-05-09T05:03:08.531Z,47.41
2024-05-09T05:05:37.798Z,47.94
2024-05-09T05:08:05.598Z,49.04
2024-05-09T05:10:36.155Z,48.30
2024-05-09T05:13:06.199Z,48.03
2024-05-09T05:15:35.444Z,48.01
2024-05-09T05:18:02.376Z,48.30
2024-05-09T05:20:33.541Z,48.23
2024-05-09T05:23:01.111Z,48.35
2024-05-09T05:25:27.850Z,48.17
2024-05-09T05:27:54.421Z,48.79
2024-05-09T05:30:25.360Z,48.57
2024-05-09T05:32:58.461Z,49.64
2024-05-09T05:35:25.176Z,49.25
2024-05-09T05:37:51.923Z,49.18
2024-05-09T05:40:27.916Z,49.36
2024-05-09T05:43:01.613Z,50.80
2024-05-09T05:45:28.152Z,50.77
2024-05-09T05:47:55.083Z,50.62
2024-05-09T05:50:32.279Z,51.00
2024-05-09T05:53:02.742Z,50.94
2024-05-09T05:55:29.295Z,51.13
2024-05-09T05:57:55.879Z,50.84
2024-05-09T06:00:29.729Z,52.92
2024-05-09T06:03:04.255Z,50.55
2024-05-09T06:05:33.798Z,50.39
2024-05-09T06:08:00.639Z,50.28
2024-05-09T06:10:37.031Z,49.94
2024-05-09T06:13:06.363Z,49.82
2024-05-09T06:15:32.891Z,51.00
2024-05-09T06:17:59.615Z,49.95
2024-05-09T06:20:34.746Z,50.80
2024-05-09T06:23:07.140Z,50.26
2024-05-09T06:25:33.849Z,50.89
2024-05-09T06:28:00.877Z,50.78
2024-05-09T06:30:36.623Z,49.40
2024-05-09T06:33:06.784Z,50.22
2024-05-09T06:35:34.048Z,48.85
2024-05-09T06:38:00.916Z,48.75
2024-05-09T06:40:37.018Z,49.65
2024-05-09T06:43:05.902Z,49.28
2024-05-09T06:45:32.605Z,50.69
2024-05-09T06:47:59.474Z,48.09
2024-05-09T06:50:28.638Z,49.64
2024-05-09T06:53:02.092Z,47.76
2024-05-09T06:55:31.435Z,47.94
2024-05-09T06:57:57.939Z,48.24
2024-05-09T07:00:30.899Z,48.41
2024-05-09T07:03:07.309Z,49.10
2024-05-09T07:05:34.052Z,46.40
2024-05-09T07:08:00.714Z,47.21
2024-05-09T07:10:33.031Z,47.40
2024-05-09T07:13:15.510Z,48.47
2024-05-09T07:15:42.775Z,47.30
2024-05-09T07:18:10.712Z,46.51
2024-05-09T07:20:37.994Z,47.08
2024-05-09T07:23:05.055Z,46.07
2024-05-09T07:25:31.758Z,46.69
2024-05-09T07:27:58.346Z,47.88
2024-05-09T07:30:33.158Z,46.13
2024-05-09T07:33:01.684Z,46.19
2024-05-09T07:35:29.222Z,46.03
2024-05-09T07:37:55.936Z,46.06
2024-05-09T07:40:32.224Z,46.18
2024-05-09T07:43:03.044Z,45.34
2024-05-09T07:53:35.717Z,44.19
2024-05-09T07:55:47.595Z,44.96
2024-05-09T07:58:14.171Z,45.84
2024-05-09T08:00:43.594Z,46.21
2024-05-09T08:03:12.894Z,46.18
2024-05-09T08:05:39.481Z,44.80
2024-05-09T08:08:06.204Z,44.73
2024-05-09T08:10:32.785Z,45.42
2024-05-09T08:12:59.369Z,45.32
2024-05-09T08:15:25.878Z,44.72
2024-05-09T08:17:55.196Z,45.94
2024-05-09T08:20:30.291Z,44.38
2024-05-09T08:22:57.847Z,44.35
2024-05-09T08:25:24.432Z,44.63
2024-05-09T08:27:50.991Z,44.02
2024-05-09T08:30:24.750Z,43.81
2024-05-09T08:32:59.056Z,43.86
2024-05-09T08:35:25.638Z,43.67
2024-05-09T08:37:52.714Z,43.78
2024-05-09T08:40:27.309Z,44.26
2024-05-09T08:42:57.567Z,43.26
2024-05-09T08:45:24.449Z,43.69
2024-05-09T08:47:52.204Z,43.67
2024-05-09T08:50:31.642Z,43.81
2024-05-09T08:53:04.668Z,42.14
2024-05-09T08:55:31.282Z,42.60
2024-05-09T08:57:58.797Z,42.57
2024-05-09T09:00:33.964Z,42.78
2024-05-09T09:03:04.780Z,42.90
2024-05-09T09:05:37.945Z,41.71
2024-05-09T09:08:06.542Z,42.44
2024-05-09T09:10:33.634Z,42.39
2024-05-09T09:13:01.655Z,42.66
2024-05-09T09:15:28.380Z,42.51
2024-05-09T09:17:56.503Z,42.83
2024-05-09T09:20:29.506Z,42.09
2024-05-09T09:23:05.071Z,42.51
2024-05-09T09:25:31.845Z,41.55
2024-05-09T09:27:58.728Z,41.45
2024-05-09T09:30:35.276Z,39.38
2024-05-09T09:33:05.263Z,41.08
2024-05-09T09:35:32.141Z,40.18
2024-05-09T09:38:01.968Z,40.23
2024-05-09T09:40:35.095Z,41.53
2024-05-09T09:43:05.328Z,40.61
2024-05-09T09:45:32.339Z,41.07
2024-05-09T09:47:59.343Z,41.18
2024-05-09T09:50:33.379Z,40.52
2024-05-09T09:53:01.373Z,41.53
2024-05-09T09:55:28.239Z,38.00
2024-05-09T09:57:57.584Z,40.05
2024-05-09T10:00:32.064Z,39.47
2024-05-09T10:03:00.219Z,38.08
2024-05-09T10:05:27.360Z,38.21
2024-05-09T10:07:54.686Z,37.41
2024-05-09T10:10:31.432Z,37.17
2024-05-09T10:13:03.052Z,37.03
2024-05-09T10:15:29.867Z,37.25
2024-05-09T10:18:04.341Z,36.84
2024-05-09T10:20:39.079Z,37.99
2024-05-09T10:23:05.647Z,36.87
2024-05-09T10:25:32.279Z,37.37
2024-05-09T10:27:58.892Z,35.13
2024-05-09T10:30:34.136Z,36.47
2024-05-09T10:33:03.093Z,34.91
2024-05-09T10:35:31.226Z,35.37
2024-05-09T10:38:03.274Z,35.02
2024-05-09T10:40:31.723Z,34.51
2024-05-09T10:43:01.897Z,35.32
2024-05-09T10:45:34.951Z,34.03
2024-05-09T10:48:02.085Z,32.81
2024-05-09T10:50:33.663Z,33.92
2024-05-09T10:53:02.407Z,34.57
2024-05-09T10:55:29.083Z,35.22
2024-05-09T10:57:55.751Z,35.76
2024-05-09T11:00:27.826Z,34.25
2024-05-09T11:03:02.733Z,31.90
2024-05-09T11:05:29.453Z,34.42
2024-05-09T11:07:56.111Z,34.46
2024-05-09T11:10:27.831Z,31.40
2024-05-09T11:13:00.430Z,32.57
2024-05-09T11:15:37.161Z,33.10
2024-05-09T11:18:06.778Z,34.02
2024-05-09T11:20:36.429Z,35.91
2024-05-09T11:23:04.386Z,34.32
2024-05-09T11:25:31.041Z,35.70
2024-05-09T11:27:58.445Z,35.94
2024-05-09T11:30:30.097Z,35.91
2024-05-09T11:32:58.817Z,35.47
2024-05-09T11:35:28.060Z,36.22
2024-05-09T11:37:54.818Z,36.15
2024-05-09T11:40:25.623Z,33.33
2024-05-09T11:42:58.652Z,34.29
2024-05-09T11:45:25.250Z,32.47
2024-05-09T11:47:51.920Z,32.24
2024-05-09T11:50:26.616Z,31.92
2024-05-09T11:52:59.382Z,33.25
2024-05-09T11:55:28.105Z,33.90
2024-05-09T11:57:55.373Z,35.32
2024-05-09T12:00:29.594Z,35.50
2024-05-09T12:03:03.392Z,34.77
2024-05-09T12:05:30.130Z,35.52
2024-05-09T12:07:59.618Z,34.34
2024-05-09T12:10:32.505Z,34.89
2024-05-09T12:13:02.085Z,34.06
2024-05-09T12:15:28.963Z,35.78
2024-05-09T12:17:58.338Z,34.14
2024-05-09T12:20:35.276Z,35.42
2024-05-09T12:23:09.511Z,34.63
2024-05-09T12:25:37.293Z,34.68
2024-05-09T12:28:04.238Z,33.30
2024-05-09T12:30:36.742Z,33.11
2024-05-09T12:33:08.287Z,32.69
2024-05-09T12:35:35.194Z,32.71
2024-05-09T12:38:02.023Z,33.98
2024-05-09T12:40:36.142Z,32.39
2024-05-09T12:43:05.251Z,34.01
2024-05-09T12:45:32.177Z,33.43
2024-05-09T12:47:59.192Z,34.14
2024-05-09T12:50:32.273Z,32.68
2024-05-09T12:53:00.817Z,33.05
2024-05-09T12:55:28.452Z,33.55
2024-05-09T12:58:01.019Z,33.23
2024-05-09T13:00:31.771Z,33.59
2024-05-09T13:03:01.062Z,34.73
2024-05-09T13:05:28.160Z,35.45
2024-05-09T13:07:55.139Z,33.16
2024-05-09T13:10:29.063Z,34.39
2024-05-09T13:13:02.201Z,32.65
2024-05-09T13:15:29.733Z,33.28
2024-05-09T13:17:59.444Z,32.67
2024-05-09T13:20:33.022Z,33.86
2024-05-09T13:23:02.645Z,32.47
2024-05-09T13:25:29.264Z,31.90
2024-05-09T13:27:56.228Z,32.08
2024-05-09T13:30:30.224Z,33.58
2024-05-09T13:33:06.468Z,33.63
2024-05-09T13:35:33.659Z,32.49
2024-05-09T13:38:00.683Z,34.43
2024-05-09T13:40:33.096Z,32.74
2024-05-09T13:43:02.167Z,33.98
2024-05-09T13:45:31.622Z,33.97
2024-05-09T13:47:58.697Z,32.55
2024-05-09T13:50:33.255Z,32.35
2024-05-09T13:53:02.580Z,32.73
2024-05-09T13:55:29.134Z,32.07
2024-05-09T13:57:55.994Z,32.26
2024-05-09T14:00:32.339Z,32.61
2024-05-09T14:03:12.112Z,34.12
2024-05-09T14:05:38.957Z,30.88
2024-05-09T14:08:05.994Z,31.21
2024-05-09T14:10:32.970Z,31.72
2024-05-09T14:12:59.807Z,31.60
2024-05-09T14:15:26.507Z,30.68
2024-05-09T14:17:53.340Z,31.98
2024-05-09T14:20:30.693Z,31.08
2024-05-09T14:22:58.765Z,31.94
2024-05-09T14:25:26.911Z,31.07
2024-05-09T14:27:53.628Z,31.13
2024-05-09T14:30:29.742Z,30.89
2024-05-09T14:33:01.432Z,31.02
2024-05-09T14:35:30.778Z,31.00
2024-05-09T14:37:57.475Z,32.47
2024-05-09T14:42:53.642Z,32.88
2024-05-09T14:45:20.167Z,32.83
2024-05-09T14:47:46.852Z,32.53
2024-05-09T14:50:19.649Z,31.72
2024-05-09T14:52:56.873Z,31.93
2024-05-09T14:55:23.733Z,30.95
2024-05-09T14:57:50.384Z,31.48
2024-05-09T15:00:24.844Z,31.46
2024-05-09T15:02:55.248Z,32.30
2024-05-09T15:05:21.936Z,32.19
2024-05-09T15:07:48.597Z,33.00
2024-05-09T15:10:26.525Z,31.65
2024-05-09T15:13:00.040Z,32.46
2024-05-09T15:15:26.830Z,32.60
2024-05-09T15:17:54.207Z,32.60
2024-05-09T15:20:27.915Z,33.04
2024-05-09T15:23:00.813Z,31.90
2024-05-09T15:25:30.182Z,33.04
2024-05-09T15:27:57.040Z,33.20
2024-05-09T15:30:30.928Z,32.85
2024-05-09T15:33:00.079Z,32.93
2024-05-09T15:35:27.019Z,31.79
2024-05-09T15:37:53.721Z,32.71
2024-05-09T15:40:30.473Z,31.59
2024-05-09T15:43:07.793Z,32.51
2024-05-09T15:45:35.248Z,32.20
2024-05-09T15:48:03.261Z,32.88
2024-05-09T15:50:37.130Z,33.53
2024-05-09T15:53:08.211Z,32.74
2024-05-09T15:55:35.777Z,32.85
2024-05-09T15:58:03.207Z,33.31
2024-05-09T16:00:37.980Z,32.88
2024-05-09T16:03:11.298Z,32.57
2024-05-09T16:05:38.835Z,33.63
2024-05-09T16:08:05.963Z,33.39
2024-05-09T16:10:34.299Z,33.40
2024-05-09T16:13:02.269Z,33.27
2024-05-09T16:15:29.646Z,33.06
2024-05-09T16:17:59.034Z,33.27
2024-05-09T16:20:34.463Z,33.70
2024-05-09T16:23:06.295Z,32.70
2024-05-09T16:25:33.001Z,33.80
2024-05-09T16:27:59.870Z,33.48
2024-05-09T16:30:33.828Z,33.30
2024-05-09T16:33:05.791Z,33.46
2024-05-09T16:35:32.542Z,35.22
2024-05-09T16:38:01.026Z,33.33
2024-05-09T16:40:36.129Z,33.66
2024-05-09T16:43:06.507Z,33.77
2024-05-09T16:45:33.713Z,33.41
2024-05-09T16:48:01.373Z,34.64
2024-05-09T16:50:33.547Z,34.67
2024-05-09T16:53:02.007Z,34.22
2024-05-09T16:55:28.777Z,34.64
2024-05-09T16:57:56.154Z,34.94
2024-05-09T17:00:34.796Z,35.14
2024-05-09T17:03:07.624Z,34.37
2024-05-09T17:05:37.782Z,35.38
2024-05-09T17:08:04.993Z,36.14
2024-05-09T17:10:34.128Z,35.67
2024-05-09T17:13:02.197Z,35.73
2024-05-09T17:15:29.128Z,35.86
2024-05-09T17:17:55.849Z,37.27
2024-05-09T17:20:29.688Z,36.32
2024-05-09T17:23:03.724Z,36.63
2024-05-09T17:25:30.388Z,36.95
2024-05-09T17:27:57.280Z,36.59
2024-05-09T17:30:32.188Z,36.57
2024-05-09T17:33:03.139Z,36.49
2024-05-09T17:35:29.846Z,37.34
2024-05-09T17:37:56.612Z,37.58
2024-05-09T17:40:32.509Z,37.48
2024-05-09T17:43:02.147Z,36.77
2024-05-09T17:45:28.903Z,37.20
2024-05-09T17:47:55.823Z,37.38
2024-05-09T17:50:30.230Z,37.78
2024-05-09T17:53:01.435Z,37.50
2024-05-09T17:55:30.827Z,38.21
2024-05-09T17:57:57.561Z,38.59
2024-05-09T18:00:33.730Z,38.02
2024-05-09T18:03:05.875Z,38.89
2024-05-09T18:05:32.954Z,39.07
2024-05-09T18:07:59.696Z,37.95
2024-05-09T18:10:33.250Z,39.11
2024-05-09T18:13:06.822Z,39.50
2024-05-09T18:15:33.775Z,39.66
2024-05-09T18:18:01.104Z,39.63
2024-05-09T18:20:37.758Z,39.97
2024-05-09T18:23:10.061Z,39.73
2024-05-09T18:25:36.630Z,39.68
2024-05-09T18:28:03.287Z,39.55
2024-05-09T18:30:35.469Z,39.84
2024-05-09T18:33:04.305Z,40.59
2024-05-09T18:35:31.606Z,40.85
2024-05-09T18:37:58.202Z,41.03
2024-05-09T18:40:32.793Z,40.84
2024-05-09T18:43:02.775Z,41.10
2024-05-09T18:45:32.572Z,42.20
2024-05-09T18:47:59.568Z,42.33
2024-05-09T18:50:34.823Z,42.83
2024-05-09T18:53:05.108Z,42.55
2024-05-09T18:55:31.725Z,42.84
2024-05-09T18:57:58.372Z,42.37
2024-05-09T19:00:33.513Z,42.56
2024-05-09T19:03:06.888Z,42.44
2024-05-09T19:05:34.265Z,42.13
2024-05-09T19:08:01.616Z,43.58
2024-05-09T19:10:33.821Z,43.56
2024-05-09T19:13:04.357Z,43.57
2024-05-09T19:15:33.661Z,44.03
2024-05-09T19:18:00.615Z,43.06
2024-05-09T19:20:34.283Z,44.79
2024-05-09T19:23:02.534Z,44.17
2024-05-09T19:25:29.068Z,44.17
2024-05-09T19:27:55.835Z,44.55
2024-05-09T19:30:30.174Z,44.37
2024-05-09T19:33:04.826Z,44.87
2024-05-09T19:35:34.248Z,45.05
2024-05-09T19:38:01.062Z,45.07
2024-05-09T19:40:31.970Z,45.27
2024-05-09T19:43:00.495Z,45.36
2024-05-09T19:45:27.149Z,45.90
2024-05-09T19:47:53.890Z,45.54
2024-05-09T19:50:27.047Z,46.35
2024-05-09T19:53:05.214Z,46.58
2024-05-09T19:55:31.762Z,46.80
2024-05-09T19:57:59.895Z,46.92
2024-05-09T20:00:32.963Z,47.04
2024-05-09T20:03:02.791Z,47.53
2024-05-09T20:05:29.648Z,48.46
2024-05-09T20:07:56.372Z,48.19
2024-05-09T20:10:31.436Z,49.00
2024-05-09T20:13:00.195Z,48.97
2024-05-09T20:15:26.898Z,49.58
2024-05-09T20:17:53.840Z,49.18
2024-05-09T20:20:28.656Z,49.78
2024-05-09T20:23:03.177Z,50.17
2024-05-09T20:25:32.580Z,50.13
2024-05-09T20:27:59.159Z,50.56
2024-05-09T20:30:31.619Z,51.02
2024-05-09T20:33:00.647Z,51.31
2024-05-09T20:35:28.651Z,51.50
2024-05-09T20:37:55.216Z,51.57
2024-05-09T20:40:28.882Z,51.70
2024-05-09T20:43:02.385Z,51.77
2024-05-09T20:45:29.039Z,52.54
2024-05-09T20:47:55.739Z,52.74
2024-05-09T20:50:29.226Z,52.78
2024-05-09T20:53:03.448Z,53.10
2024-05-09T20:55:30.364Z,52.92
2024-05-09T20:57:57.260Z,53.12
2024-05-09T21:00:35.368Z,53.08
2024-05-09T21:03:07.348Z,53.30
2024-05-09T21:05:35.045Z,53.95
2024-05-09T21:08:02.191Z,53.89
2024-05-09T21:10:32.792Z,54.15
2024-05-09T21:13:00.691Z,54.53
2024-05-09T21:15:29.953Z,54.42
2024-05-09T21:17:56.577Z,54.95
2024-05-09T21:20:28.654Z,55.35
2024-05-09T21:22:57.940Z,55.36
2024-05-09T21:25:24.715Z,55.82
2024-05-09T21:27:52.145Z,56.23
2024-05-09T21:30:30.631Z,56.69
2024-05-09T21:33:07.977Z,56.95
2024-05-09T21:35:34.809Z,56.49
2024-05-09T21:38:01.344Z,56.34
2024-05-09T21:40:34.127Z,57.12
2024-05-09T21:43:02.656Z,56.78
2024-05-09T21:45:29.398Z,56.77
2024-05-09T21:47:56.230Z,57.30
2024-05-09T21:50:32.463Z,57.44
2024-05-09T21:53:05.863Z,57.55
2024-05-09T21:55:32.505Z,57.68
2024-05-09T21:57:59.115Z,58.56
2024-05-09T22:00:32.981Z,58.44
2024-05-09T22:03:04.055Z,58.68
2024-05-09T22:05:33.954Z,59.21
2024-05-09T22:08:00.865Z,59.55
2024-05-09T22:10:33.708Z,58.90
2024-05-09T22:13:02.689Z,58.87
2024-05-09T22:15:29.343Z,59.25
2024-05-09T22:17:56.946Z,58.94
2024-05-09T22:20:32.956Z,59.35
2024-05-09T22:23:05.743Z,60.55
2024-05-09T22:25:32.874Z,60.11
2024-05-09T22:28:00.024Z,59.99
2024-05-09T22:30:34.843Z,59.87
2024-05-09T22:33:05.678Z,60.38
2024-05-09T22:35:32.421Z,60.61
2024-05-09T22:37:59.412Z,60.71
2024-05-09T22:40:38.448Z,60.28
2024-05-09T22:43:14.078Z,60.42
2024-05-09T22:45:41.055Z,60.50
2024-05-09T22:48:08.574Z,60.00
2024-05-09T22:50:35.481Z,60.63
2024-05-09T22:53:02.210Z,60.68
2024-05-09T22:55:31.499Z,61.36
2024-05-09T22:57:58.111Z,61.61
2024-05-09T23:02:54.146Z,62.30
2024-05-09T23:05:20.835Z,62.20
2024-05-09T23:07:47.431Z,62.29
2024-05-09T23:10:20.960Z,62.71
2024-05-09T23:12:56.615Z,62.18
2024-05-09T23:15:23.147Z,62.01
2024-05-09T23:17:49.949Z,62.24
2024-05-09T23:20:22.106Z,62.33
2024-05-09T23:22:56.475Z,63.07
2024-05-09T23:25:23.086Z,63.27
2024-05-09T23:27:49.779Z,64.32
2024-05-09T23:30:29.130Z,64.35
2024-05-09T23:33:03.690Z,64.03
2024-05-09T23:35:30.291Z,64.00
2024-05-09T23:37:56.820Z,64.20
2024-05-09T23:40:24.077Z,63.90
2024-05-09T23:42:56.794Z,64.00
2024-05-09T23:45:25.967Z,64.61
2024-05-09T23:47:52.793Z,64.48
2024-05-09T23:50:26.351Z,64.04
2024-05-09T23:52:59.213Z,64.55
2024-05-09T23:55:25.811Z,64.47
2024-05-09T23:57:52.402Z,65.02
